createdAt,value
2022-08-17T00:01:27.733Z,62.19
2022-08-17T00:06:31.640Z,62.41
2022-08-17T00:12:42.249Z,62.40
2022-08-17T00:17:10.022Z,62.47
2022-08-17T00:22:31.783Z,62.60
2022-08-17T00:27:53.661Z,63.07
2022-08-17T00:33:21.905Z,63.74
2022-08-17T00:38:25.571Z,63.65
2022-08-17T00:43:46.043Z,64.30
2022-08-17T00:49:08.837Z,64.10
2022-08-17T00:54:16.292Z,64.61
2022-08-17T00:59:21.491Z,64.78
2022-08-17T01:04:24.759Z,64.45
2022-08-17T01:09:27.327Z,64.33
2022-08-17T01:14:29.635Z,64.31
2022-08-17T01:19:36.171Z,64.83
2022-08-17T01:24:42.010Z,64.98
2022-08-17T01:29:48.657Z,65.26
2022-08-17T01:34:52.865Z,65.09
2022-08-17T01:40:00.891Z,65.61
2022-08-17T01:45:09.151Z,65.96
2022-08-17T01:50:20.827Z,66.27
2022-08-17T01:55:40.720Z,65.83
2022-08-17T02:01:02.030Z,65.83
2022-08-17T02:06:06.623Z,65.96
2022-08-17T02:11:28.961Z,66.28
2022-08-17T02:16:51.542Z,66.15
2022-08-17T02:21:54.663Z,66.40
2022-08-17T02:26:56.941Z,66.40
2022-08-17T02:32:01.945Z,66.60
2022-08-17T02:37:04.369Z,66.51
2022-08-17T02:42:07.432Z,66.59
2022-08-17T02:47:11.186Z,66.64
2022-08-17T02:52:13.525Z,66.55
2022-08-17T02:57:15.956Z,66.76
2022-08-17T03:02:41.826Z,67.32
2022-08-17T03:07:44.582Z,66.46
2022-08-17T03:12:47.761Z,66.63
2022-08-17T03:18:08.781Z,67.00
2022-08-17T03:23:41.570Z,66.50
2022-08-17T03:28:44.109Z,66.79
2022-08-17T03:33:46.461Z,66.64
2022-08-17T03:38:48.792Z,66.62
2022-08-17T03:43:53.441Z,66.83
2022-08-17T03:49:14.251Z,66.53
2022-08-17T03:54:34.973Z,66.60
2022-08-17T03:59:39.049Z,66.57
2022-08-17T04:04:41.517Z,66.10
2022-08-17T04:09:43.888Z,65.52
2022-08-17T04:14:52.098Z,65.53
2022-08-17T04:19:56.759Z,65.43
2022-08-17T04:24:59.685Z,65.15
2022-08-17T04:30:02.505Z,65.31
2022-08-17T04:35:06.605Z,64.86
2022-08-17T04:40:27.845Z,64.64
2022-08-17T04:45:32.233Z,63.91
2022-08-17T04:50:36.714Z,63.32
2022-08-17T04:55:42.811Z,63.06
2022-08-17T05:00:45.365Z,61.67
2022-08-17T05:06:06.384Z,60.89
2022-08-17T05:11:08.845Z,60.58
2022-08-17T05:16:11.593Z,59.84
2022-08-17T05:21:14.243Z,60.69
2022-08-17T05:26:26.350Z,59.88
2022-08-17T05:31:29.921Z,59.06
2022-08-17T05:36:50.281Z,58.28
2022-08-17T05:41:52.870Z,57.58
2022-08-17T05:47:14.133Z,56.75
2022-08-17T05:52:56.649Z,56.14
2022-08-17T05:58:04.800Z,55.95
2022-08-17T06:03:13.126Z,55.33
2022-08-17T06:08:24.494Z,55.23
2022-08-17T06:14:05.432Z,54.46
2022-08-17T06:19:19.292Z,54.13
2022-08-17T06:24:28.112Z,53.41
2022-08-17T06:29:42.841Z,52.88
2022-08-17T06:34:46.570Z,52.57
2022-08-17T06:40:20.695Z,51.97
2022-08-17T06:45:29.110Z,51.35
2022-08-17T06:50:43.113Z,52.83
2022-08-17T06:55:57.500Z,50.01
2022-08-17T07:01:40.705Z,50.41
2022-08-17T07:06:54.189Z,49.01
2022-08-17T07:12:16.967Z,49.24
2022-08-17T07:17:21.447Z,48.71
2022-08-17T07:23:09.680Z,48.47
2022-08-17T07:28:13.277Z,47.72
2022-08-17T07:33:20.409Z,47.27
2022-08-17T07:38:27.985Z,45.77
2022-08-17T07:43:44.903Z,45.30
2022-08-17T07:48:50.428Z,45.57
2022-08-17T07:54:13.583Z,44.70
2022-08-17T07:59:24.111Z,45.22
2022-08-17T08:05:00.563Z,44.66
2022-08-17T08:10:28.538Z,44.96
2022-08-17T08:15:53.861Z,44.94
2022-08-17T08:21:26.266Z,43.62
2022-08-17T08:26:43.309Z,44.74
2022-08-17T08:31:48.492Z,43.15
2022-08-17T08:37:14.974Z,42.94
2022-08-17T08:42:50.650Z,42.95
2022-08-17T08:48:58.044Z,40.62
2022-08-17T08:53:54.187Z,41.51
2022-08-17T08:59:35.715Z,40.58
2022-08-17T09:05:13.788Z,40.12
2022-08-17T09:10:32.045Z,39.88
2022-08-17T09:16:00.650Z,40.30
2022-08-17T09:21:29.589Z,38.61
2022-08-17T09:27:11.070Z,39.68
2022-08-17T09:32:41.740Z,39.10
2022-08-17T09:38:05.715Z,39.53
2022-08-17T09:43:34.321Z,38.49
2022-08-17T09:48:38.278Z,40.64
2022-08-17T09:53:41.322Z,39.37
2022-08-17T09:59:14.204Z,38.65
2022-08-17T10:04:33.054Z,37.33
2022-08-17T10:09:57.152Z,37.44
2022-08-17T10:15:25.392Z,37.41
2022-08-17T10:20:41.453Z,37.07
2022-08-17T10:26:10.157Z,36.97
2022-08-17T10:31:35.904Z,36.95
2022-08-17T10:36:46.507Z,37.59
2022-08-17T10:42:32.292Z,35.53
2022-08-17T10:47:56.092Z,36.08
2022-08-17T10:52:59.697Z,36.62
2022-08-17T10:58:24.762Z,36.76
2022-08-17T11:03:33.161Z,35.92
2022-08-17T11:08:47.598Z,35.51
2022-08-17T11:14:04.304Z,35.43
2022-08-17T11:19:30.864Z,34.97
2022-08-17T11:24:36.510Z,35.06
2022-08-17T11:29:58.099Z,34.53
2022-08-17T11:35:39.102Z,35.17
2022-08-17T11:40:46.619Z,34.39
2022-08-17T11:46:18.260Z,34.92
2022-08-17T11:51:34.737Z,34.23
2022-08-17T11:56:45.014Z,33.94
2022-08-17T12:01:57.372Z,34.78
2022-08-17T12:07:19.139Z,34.52
2022-08-17T12:12:30.097Z,33.40
2022-08-17T12:17:40.254Z,34.15
2022-08-17T12:23:10.521Z,33.56
2022-08-17T12:28:32.705Z,35.33
2022-08-17T12:33:36.574Z,33.26
2022-08-17T12:38:39.032Z,33.85
2022-08-17T12:43:41.355Z,33.20
2022-08-17T12:48:59.562Z,32.69
2022-08-17T12:54:02.623Z,32.68
2022-08-17T12:59:07.470Z,32.76
2022-08-17T13:04:14.335Z,31.94
2022-08-17T13:09:35.771Z,32.72
2022-08-17T13:14:46.464Z,32.17
2022-08-17T13:19:50.222Z,31.75
2022-08-17T13:24:58.807Z,31.75
2022-08-17T13:30:05.920Z,31.03
2022-08-17T13:35:49.884Z,31.63
2022-08-17T13:40:53.551Z,31.26
2022-08-17T13:46:08.875Z,31.70
2022-08-17T13:51:25.565Z,31.27
2022-08-17T13:56:39.815Z,31.59
2022-08-17T14:01:53.528Z,30.87
2022-08-17T14:07:16.265Z,31.24
2022-08-17T14:12:21.959Z,31.16
2022-08-17T14:17:43.106Z,31.21
2022-08-17T14:23:03.952Z,31.55
2022-08-17T14:28:07.262Z,31.24
2022-08-17T14:33:09.901Z,32.10
2022-08-17T14:38:12.188Z,31.84
2022-08-17T14:43:35.167Z,32.31
2022-08-17T14:48:39.158Z,31.27
2022-08-17T14:53:42.335Z,31.93
2022-08-17T14:58:44.747Z,32.53
2022-08-17T15:03:47.867Z,32.86
2022-08-17T15:08:50.966Z,32.97
2022-08-17T15:13:53.445Z,33.25
2022-08-17T15:19:16.959Z,33.16
2022-08-17T15:24:19.342Z,33.89
2022-08-17T15:29:23.743Z,33.48
2022-08-17T15:34:26.059Z,34.18
2022-08-17T15:39:28.489Z,34.08
2022-08-17T15:44:32.586Z,34.23
2022-08-17T15:49:59.975Z,33.74
2022-08-17T15:55:24.179Z,35.42
2022-08-17T16:00:28.787Z,36.28
2022-08-17T16:05:31.576Z,37.46
2022-08-17T16:10:35.365Z,38.19
2022-08-17T16:15:38.385Z,39.17
2022-08-17T16:20:40.765Z,39.47
2022-08-17T16:25:52.731Z,40.33
2022-08-17T16:30:56.359Z,41.57
2022-08-17T16:36:18.094Z,43.37
2022-08-17T16:42:01.807Z,45.24
2022-08-17T16:47:04.996Z,46.54
2022-08-17T16:52:11.993Z,47.23
2022-08-17T16:57:15.397Z,47.58
2022-08-17T17:02:32.442Z,47.74
2022-08-17T17:08:03.653Z,47.28
2022-08-17T17:13:41.624Z,46.72
2022-08-17T17:19:08.191Z,46.56
2022-08-17T17:24:15.842Z,46.29
2022-08-17T17:29:47.692Z,46.23
2022-08-17T17:34:54.436Z,46.45
2022-08-17T17:40:23.515Z,47.35
2022-08-17T17:45:45.228Z,48.27
2022-08-17T17:52:08.729Z,47.90
2022-08-17T17:57:11.313Z,49.26
2022-08-17T18:02:52.241Z,47.31
2022-08-17T18:08:34.936Z,47.60
2022-08-17T18:13:57.662Z,47.96
2022-08-17T18:19:25.322Z,48.15
2022-08-17T18:24:39.914Z,48.98
2022-08-17T18:30:08.763Z,48.83
2022-08-17T18:35:32.874Z,48.53
2022-08-17T18:40:37.849Z,49.40
2022-08-17T18:45:43.247Z,49.70
2022-08-17T18:51:41.913Z,49.07
2022-08-17T18:56:59.641Z,49.52
2022-08-17T19:07:43.682Z,50.88
2022-08-17T19:13:12.705Z,51.09
2022-08-17T19:18:17.670Z,50.88
2022-08-17T19:23:36.699Z,50.44
2022-08-17T19:28:48.025Z,51.21
2022-08-17T19:34:11.622Z,50.81
2022-08-17T19:39:38.155Z,51.17
2022-08-17T19:44:59.807Z,50.71
2022-08-17T19:50:38.723Z,51.39
2022-08-17T19:56:12.682Z,51.39
2022-08-17T20:01:40.577Z,52.30
2022-08-17T20:06:44.783Z,52.07
2022-08-17T20:12:19.274Z,52.74
2022-08-17T20:17:25.636Z,50.54
2022-08-17T20:22:49.697Z,52.71
2022-08-17T20:28:06.011Z,53.71
2022-08-17T20:33:27.858Z,53.69
2022-08-17T20:38:44.559Z,54.47
2022-08-17T20:44:07.377Z,54.35
2022-08-17T20:49:35.872Z,54.07
2022-08-17T20:54:57.572Z,54.53
2022-08-17T21:00:30.092Z,55.11
2022-08-17T21:05:57.321Z,55.49
2022-08-17T21:11:59.980Z,55.25
2022-08-17T21:17:20.353Z,55.54
2022-08-17T21:22:31.986Z,55.91
2022-08-17T21:28:07.382Z,56.03
2022-08-17T21:33:33.640Z,56.17
2022-08-17T21:38:48.009Z,56.42
2022-08-17T21:43:52.336Z,56.11
2022-08-17T21:48:55.633Z,56.44
2022-08-17T21:54:05.109Z,57.00
2022-08-17T21:59:34.871Z,57.27
2022-08-17T22:05:08.956Z,57.75
2022-08-17T22:10:50.689Z,57.48
2022-08-17T22:16:27.940Z,57.60
2022-08-17T22:21:31.488Z,57.58
2022-08-17T22:27:07.715Z,58.06
2022-08-17T22:32:41.698Z,58.28
2022-08-17T22:38:20.884Z,58.39
2022-08-17T22:43:28.829Z,58.44
2022-08-17T22:48:31.508Z,58.19
2022-08-17T22:53:53.785Z,58.90
2022-08-17T22:59:16.580Z,59.27
2022-08-17T23:04:46.325Z,58.90
2022-08-17T23:09:52.067Z,59.01
2022-08-17T23:15:02.359Z,60.00
2022-08-17T23:20:09.349Z,59.50
2022-08-17T23:25:32.113Z,59.67
2022-08-17T23:30:52.777Z,59.43
2022-08-17T23:35:55.115Z,59.82
2022-08-17T23:41:21.273Z,60.15
2022-08-17T23:46:44.610Z,60.03
2022-08-17T23:51:48.259Z,60.22
2022-08-17T23:56:50.695Z,60.56
